• Join FlightAware (Why Join?)
  • Login
  • US Flag 
03:14AM EDT


 

Airport Tracker/Info


-or-


 

Live Flight TrackerFlight Track Log ✈ N79811 ✈ 14-Nov-2013 ✈ KUZA - KDYB

Flight Track Log - Related Links

Times and Time Zones

All times are in EST time to prevent confusion due to time zone crossing. See the N79811 flight status page for this flight to view local times or setup timezone preferences in your user account.

Time Position Orientation Groundspeed Altitude Reporting Facility
EST Latitude Longitude Course Direction KTS MPH feet Rate Location/Type
09:26PM 34.9542 -81.0636 165° South 72 83 1,700  Level Atlanta Center
09:27PM 34.9331 -81.0567 165° South 91 105 2,100 480 Climbing Atlanta Center
09:28PM 34.9117 -81.0422 151° Southeast 90 104 2,700 540 Climbing Atlanta Center
09:29PM 34.8928 -81.0303 153° Southeast 82 94 3,200 420 Climbing Atlanta Center
09:30PM 34.8714 -81.0158 151° Southeast 91 105 3,600 420 Climbing Atlanta Center
09:31PM 34.8442 -81.0042 161° South 91 105 4,100 420 Climbing Atlanta Center
09:32PM 34.8208 -80.9950 162° South 94 108 4,500 360 Climbing Atlanta Center
09:33PM 34.7933 -80.9808 157° South 97 112 4,900 300 Climbing Atlanta Center
09:34PM 34.7703 -80.9692 157° South 102 117 5,100 180 Climbing Atlanta Center
09:36PM 34.7154 -80.9460 161° South  Level FlightAware Approximate
09:43PM 34.4778 -80.8458 161° South  Level FlightAware Approximate
09:44PM 34.4438 -80.8315 161° South  Level FlightAware Approximate
09:45PM 34.4099 -80.8172 161° South  Level FlightAware Approximate
09:46PM 34.3760 -80.8029 161° South  Level FlightAware Approximate
09:47PM 34.3420 -80.7886 161° South  Level FlightAware Approximate
09:48PM 34.3081 -80.7744 161° South  Level FlightAware Approximate
09:49PM 34.2741 -80.7601 161° South  Level FlightAware Approximate
09:50PM 34.2401 -80.7460 161° South  Level FlightAware Approximate
09:51PM 34.2061 -80.7321 161° South  Level FlightAware Approximate
09:52PM 34.1720 -80.7182 161° South  Level FlightAware Approximate
09:53PM 34.1380 -80.7043 161° South  Level FlightAware Approximate
09:54PM 34.1039 -80.6905 161° South  Level FlightAware Approximate
09:55PM 34.0699 -80.6766 161° South  Level FlightAware Approximate
09:56PM 34.0358 -80.6628 161° South  Level FlightAware Approximate
09:57PM 34.0018 -80.6490 161° South  Level FlightAware Approximate
09:58PM 33.9677 -80.6352 161° South  Level FlightAware Approximate
09:59PM 33.9337 -80.6214 161° South  Level FlightAware Approximate
10:00PM 33.8996 -80.6076 161° South  Level FlightAware Approximate
10:01PM 33.8655 -80.5938 161° South  Level FlightAware Approximate
10:02PM 33.8315 -80.5800 161° South  Level FlightAware Approximate
10:03PM 33.7974 -80.5663 161° South  Level FlightAware Approximate
10:04PM 33.7633 -80.5525 161° South  Level FlightAware Approximate
10:05PM 33.7293 -80.5388 161° South  Level FlightAware Approximate
10:06PM 33.6952 -80.5251 161° South  Level FlightAware Approximate
10:07PM 33.6611 -80.5114 161° South  Level FlightAware Approximate
10:08PM 33.6270 -80.4977 161° South  Level FlightAware Approximate
10:09PM 33.5930 -80.4840 161° South  Level FlightAware Approximate
10:10PM 33.5589 -80.4703 162° South  Level FlightAware Approximate
10:11PM 33.5248 -80.4566 162° South  Level FlightAware Approximate
10:12PM 33.4907 -80.4430 162° South  Level FlightAware Approximate
10:13PM 33.4567 -80.4291 160° South  Level FlightAware Approximate
10:14PM 33.4229 -80.4146 160° South  Level FlightAware Approximate
10:15PM 33.3891 -80.4001 160° South  Level FlightAware Approximate
10:16PM 33.3552 -80.3856 160° South  Level FlightAware Approximate
10:17PM 33.3204 -80.3779 161° South  Level FlightAware Approximate
10:18PM 33.2865 -80.3638 161° South  Level FlightAware Approximate
10:19PM 33.2525 -80.3496 161° South  Level FlightAware Approximate
10:20PM 33.2186 -80.3355 161° South  Level FlightAware Approximate
10:21PM 33.1847 -80.3214 161° South  Level FlightAware Approximate
10:22PM 33.1507 -80.3072 161° South  Level FlightAware Approximate
10:23PM 33.1167 -80.2934 161° South  Level FlightAware Approximate
10:24PM 33.0827 -80.2797 161° South  Level FlightAware Approximate
10:25PM 33.0634 -80.2793 161° South  Level Estimated
10:26PM 33.0634 -80.2793 161° South  Level Estimated
10:27PM 33.0634 -80.2793 161° South  Level Estimated
10:28PM 33.0634 -80.2793 161° South  Level Estimated